»·PEaware :: N832JA L52-L88

N832JA :: L52-L88

FLIGHT INFORMATION

Flight Status: Arrived
Operator: Privately registered:
United States
More flights under this callsign
Pilot: Michael M. (23435)
Aircraft: CESSNA 172 SKYHAWK
(C172)
More flights by this aircraft type
Origin: L52 Oceano Co
United States
Destination: L88 New Cuyama
United States
More flights between these airports :: More routes between these airports
Route: DIRECT
File this flight plan on PilotEdge
Remarks: CAT 1 Flight
Altitude:
(Current/Filed)
0ft
Speed:
(Current/Filed)
0kts
Departed: 09-Feb-19 05:03 PM
Arrived: 09-Feb-19 06:18 PM
Distance/Time
Traveled:
47nm/1:15
Distance/Time
To Go:
Arrived

Flight Plot

Page will automatically refresh every two minutes.


Map Options




Map Legend


Flown Route
Filed Route
Departure Airport
Arrival Airport
Navaid (VOR, NDB)
Fix

Horizontal Profiles

Position Reports

Time Latitude Longitude Heading Altitude Ground
Speed
09-Feb-19 16:52 35.103552 -120.624284 214 18ft 0kts
09-Feb-19 16:53 35.103552 -120.624284 214 18ft 0kts
09-Feb-19 16:54 35.103552 -120.624284 214 18ft 0kts
09-Feb-19 16:55 35.103552 -120.624284 214 18ft 0kts
09-Feb-19 16:56 35.103552 -120.624284 214 18ft 0kts
09-Feb-19 16:57 35.103552 -120.624284 214 18ft 0kts
09-Feb-19 16:58 35.103489 -120.624344 235 18ft 0kts
09-Feb-19 16:59 35.103855 -120.625063 252 18ft 7kts
09-Feb-19 17:00 35.103483 -120.625183 210 18ft 0kts
09-Feb-19 17:01 35.103208 -120.625304 169 18ft 3kts
09-Feb-19 17:02 35.101076 -120.621438 122 18ft 61kts
09-Feb-19 17:03 35.095321 -120.611535 100 278ft 57kts
09-Feb-19 17:04 35.098252 -120.600322 58 456ft 59kts
09-Feb-19 17:05 35.097762 -120.589329 99 606ft 63kts
09-Feb-19 17:06 35.096119 -120.575136 111 840ft 62kts
09-Feb-19 17:07 35.091318 -120.562796 91 987ft 71kts
09-Feb-19 17:08 35.091112 -120.547590 92 1220ft 72kts
09-Feb-19 17:09 35.090609 -120.532140 100 1460ft 71kts
09-Feb-19 17:10 35.087049 -120.517638 115 1699ft 70kts
09-Feb-19 17:11 35.083751 -120.502622 107 1948ft 69kts
09-Feb-19 17:12 35.079207 -120.486022 98 2182ft 74kts
09-Feb-19 17:13 35.079130 -120.485375 97 2192ft 74kts
09-Feb-19 17:14 35.078960 -120.480608 94 2253ft 75kts
09-Feb-19 17:15 35.078615 -120.478090 100 2285ft 76kts
09-Feb-19 17:16 35.077578 -120.466405 96 2296ft 96kts
09-Feb-19 17:17 35.076828 -120.448618 115 2662ft 77kts
09-Feb-19 17:18 35.070841 -120.433067 94 2919ft 76kts
09-Feb-19 17:19 35.067046 -120.416830 106 3150ft 78kts
09-Feb-19 17:20 35.063949 -120.400062 102 3277ft 92kts
09-Feb-19 17:21 35.058550 -120.380558 110 2768ft 109kts
09-Feb-19 17:22 35.051054 -120.360039 115 2454ft 88kts
09-Feb-19 17:23 35.049100 -120.341230 58 2213ft 87kts
09-Feb-19 17:24 35.053098 -120.326619 100 2065ft 80kts
09-Feb-19 17:25 35.045963 -120.314188 120 1847ft 84kts
09-Feb-19 17:26 35.047108 -120.297157 83 1657ft 80kts
09-Feb-19 17:27 35.045797 -120.280443 96 1571ft 64kts
09-Feb-19 17:28 35.043630 -120.266619 104 1777ft 69kts
09-Feb-19 17:29 35.039647 -120.249665 109 2146ft 73kts
09-Feb-19 17:30 35.038803 -120.233079 95 2486ft 79kts
09-Feb-19 17:31 35.035331 -120.216282 103 2907ft 75kts
09-Feb-19 17:32 35.032327 -120.198868 109 3296ft 77kts
09-Feb-19 17:33 35.030302 -120.191856 110 3465ft 77kts
09-Feb-19 17:34 35.030302 -120.191856 110 3465ft 77kts
09-Feb-19 17:35 35.030302 -120.191856 110 3465ft 77kts
09-Feb-19 17:36 35.030302 -120.191856 110 3465ft 77kts
09-Feb-19 17:37 35.028243 -120.181902 102 3699ft 77kts
09-Feb-19 17:38 35.026215 -120.174969 118 3870ft 77kts
09-Feb-19 17:39 35.023666 -120.158155 108 4153ft 90kts
09-Feb-19 17:40 35.021220 -120.138608 85 4617ft 83kts
09-Feb-19 17:41 35.021204 -120.135865 94 4668ft 83kts
09-Feb-19 17:42 35.021204 -120.135865 94 4668ft 83kts
09-Feb-19 17:43 35.021204 -120.135865 94 4668ft 83kts
09-Feb-19 17:44 35.021204 -120.135865 94 4668ft 83kts
09-Feb-19 17:45 35.021204 -120.135865 94 4668ft 83kts
09-Feb-19 17:46 35.021204 -120.135865 94 4668ft 83kts
09-Feb-19 17:47 35.021204 -120.135865 94 4668ft 83kts
09-Feb-19 17:48 35.021204 -120.135865 94 4668ft 83kts
09-Feb-19 17:49 35.021204 -120.135865 94 4668ft 83kts
09-Feb-19 17:50 35.021128 -120.134890 95 4697ft 81kts
09-Feb-19 17:51 35.019083 -120.117905 104 5097ft 79kts
09-Feb-19 17:52 35.014982 -120.101002 102 5458ft 81kts
09-Feb-19 17:53 35.012288 -120.083698 105 5835ft 81kts
09-Feb-19 17:54 35.007787 -120.066356 102 6213ft 81kts
09-Feb-19 17:55 35.003222 -120.049116 111 6582ft 82kts
09-Feb-19 17:56 34.999699 -120.030704 91 6961ft 82kts
09-Feb-19 17:57 34.998092 -120.011988 102 7324ft 84kts
09-Feb-19 17:58 34.994965 -119.994159 101 7697ft 82kts
09-Feb-19 17:59 34.991867 -119.976036 83 8032ft 85kts
09-Feb-19 18:00 34.990071 -119.956122 103 8341ft 91kts
09-Feb-19 18:01 34.985544 -119.935924 101 8768ft 85kts
09-Feb-19 18:03 34.984370 -119.914771 96 9132ft 87kts
09-Feb-19 18:04 34.979296 -119.893611 118 9150ft 116kts
09-Feb-19 18:05 34.966534 -119.870798 129 8853ft 137kts
09-Feb-19 18:06 34.957821 -119.845189 93 9024ft 107kts
09-Feb-19 18:07 34.959388 -119.824211 76 9481ft 96kts
09-Feb-19 18:08 34.963968 -119.802820 134 9540ft 96kts
09-Feb-19 18:09 34.960240 -119.781284 97 9530ft 100kts
09-Feb-19 18:10 34.955151 -119.756641 106 9060ft 128kts
09-Feb-19 18:11 34.947034 -119.726738 108 8042ft 145kts
09-Feb-19 18:12 34.938201 -119.695647 108 7469ft 125kts
09-Feb-19 18:13 34.939835 -119.667457 34 6935ft 119kts
09-Feb-19 18:14 34.951387 -119.649665 323 5611ft 159kts
09-Feb-19 18:15 34.941893 -119.666274 140 2971ft 164kts
09-Feb-19 18:16 34.932997 -119.665402 287 2465ft 79kts
09-Feb-19 18:17 34.937230 -119.679091 297 2246ft 69kts
09-Feb-19 18:18 34.940782 -119.687597 299 2207ft 14kts
09-Feb-19 18:19 34.941432 -119.688675 302 2207ft 0kts
09-Feb-19 18:20 34.942135 -119.689538 324 2207ft 21kts
09-Feb-19 18:21 34.942888 -119.690461 25 2207ft 0kts
09-Feb-19 18:21 34.942888 -119.690461 25 2207ft 0kts
09-Feb-19 18:23 34.942888 -119.690461 25 2207ft 0kts
09-Feb-19 18:24 34.942888 -119.690461 25 2207ft 0kts
09-Feb-19 18:24 34.942888 -119.690461 25 2207ft 0kts
09-Feb-19 18:25 34.942888 -119.690461 25 2207ft 0kts

Navigation Log

Ident Type
Flight plan parsing failed, navigation log unavailable